sensor_id;sensor_type;location;lat;lon;timestamp;P1;durP1;ratioP1;P2;durP2;ratioP2
36799;SDS011;22752;51.960;5.886;2023-02-15T00:00:12;44.10;;;28.57;;
36799;SDS011;22752;51.960;5.886;2023-02-15T00:02:38;42.97;;;27.33;;
36799;SDS011;22752;51.960;5.886;2023-02-15T00:05:04;42.73;;;26.33;;
36799;SDS011;22752;51.960;5.886;2023-02-15T00:07:30;40.83;;;25.53;;
36799;SDS011;22752;51.960;5.886;2023-02-15T00:09:55;42.70;;;25.37;;
36799;SDS011;22752;51.960;5.886;2023-02-15T00:12:21;41.30;;;25.67;;
36799;SDS011;22752;51.960;5.886;2023-02-15T00:14:47;34.90;;;23.60;;
36799;SDS011;22752;51.960;5.886;2023-02-15T00:17:12;39.50;;;25.73;;
36799;SDS011;22752;51.960;5.886;2023-02-15T00:19:38;40.57;;;26.70;;
36799;SDS011;22752;51.960;5.886;2023-02-15T00:22:05;37.33;;;22.97;;
36799;SDS011;22752;51.960;5.886;2023-02-15T00:24:31;38.77;;;24.53;;
36799;SDS011;22752;51.960;5.886;2023-02-15T00:26:57;38.00;;;23.70;;
36799;SDS011;22752;51.960;5.886;2023-02-15T00:29:23;41.20;;;26.10;;
36799;SDS011;22752;51.960;5.886;2023-02-15T00:31:49;39.77;;;25.20;;
36799;SDS011;22752;51.960;5.886;2023-02-15T00:34:16;43.13;;;26.53;;
36799;SDS011;22752;51.960;5.886;2023-02-15T00:36:42;44.33;;;28.20;;
36799;SDS011;22752;51.960;5.886;2023-02-15T00:39:09;41.97;;;26.27;;
36799;SDS011;22752;51.960;5.886;2023-02-15T00:41:34;38.77;;;24.37;;
36799;SDS011;22752;51.960;5.886;2023-02-15T00:44:00;41.43;;;25.17;;
36799;SDS011;22752;51.960;5.886;2023-02-15T00:46:26;39.73;;;26.13;;
36799;SDS011;22752;51.960;5.886;2023-02-15T00:48:52;45.37;;;27.10;;
36799;SDS011;22752;51.960;5.886;2023-02-15T00:51:17;43.20;;;27.57;;
36799;SDS011;22752;51.960;5.886;2023-02-15T00:53:43;44.03;;;27.13;;
36799;SDS011;22752;51.960;5.886;2023-02-15T00:56:10;40.70;;;27.40;;
36799;SDS011;22752;51.960;5.886;2023-02-15T00:58:35;43.80;;;27.00;;
36799;SDS011;22752;51.960;5.886;2023-02-15T01:01:06;47.57;;;30.60;;
36799;SDS011;22752;51.960;5.886;2023-02-15T01:03:33;54.77;;;31.93;;
36799;SDS011;22752;51.960;5.886;2023-02-15T01:05:59;50.67;;;30.37;;
36799;SDS011;22752;51.960;5.886;2023-02-15T01:08:25;49.73;;;29.80;;
36799;SDS011;22752;51.960;5.886;2023-02-15T01:10:51;49.03;;;28.63;;
36799;SDS011;22752;51.960;5.886;2023-02-15T01:13:17;43.33;;;26.83;;
36799;SDS011;22752;51.960;5.886;2023-02-15T01:15:43;40.20;;;24.87;;
36799;SDS011;22752;51.960;5.886;2023-02-15T01:18:09;39.33;;;25.33;;
36799;SDS011;22752;51.960;5.886;2023-02-15T01:20:36;42.13;;;27.00;;
36799;SDS011;22752;51.960;5.886;2023-02-15T01:23:04;47.27;;;27.70;;
36799;SDS011;22752;51.960;5.886;2023-02-15T01:25:30;44.57;;;27.47;;
36799;SDS011;22752;51.960;5.886;2023-02-15T01:27:57;42.70;;;28.03;;
36799;SDS011;22752;51.960;5.886;2023-02-15T01:30:23;44.20;;;28.20;;
36799;SDS011;22752;51.960;5.886;2023-02-15T01:32:48;46.67;;;28.67;;
36799;SDS011;22752;51.960;5.886;2023-02-15T01:35:14;42.73;;;26.30;;
36799;SDS011;22752;51.960;5.886;2023-02-15T01:37:40;41.50;;;26.17;;
36799;SDS011;22752;51.960;5.886;2023-02-15T01:40:08;45.00;;;28.47;;
36799;SDS011;22752;51.960;5.886;2023-02-15T01:42:37;41.90;;;26.93;;
36799;SDS011;22752;51.960;5.886;2023-02-15T01:45:03;46.27;;;26.53;;
36799;SDS011;22752;51.960;5.886;2023-02-15T01:47:49;42.97;;;27.13;;
36799;SDS011;22752;51.960;5.886;2023-02-15T01:50:24;48.80;;;29.07;;
36799;SDS011;22752;51.960;5.886;2023-02-15T01:55:57;43.47;;;26.23;;
36799;SDS011;22752;51.960;5.886;2023-02-15T01:58:26;40.23;;;25.43;;
36799;SDS011;22752;51.960;5.886;2023-02-15T02:00:55;43.87;;;26.10;;
36799;SDS011;22752;51.960;5.886;2023-02-15T02:03:27;36.73;;;24.10;;
36799;SDS011;22752;51.960;5.886;2023-02-15T02:06:03;46.17;;;26.87;;
36799;SDS011;22752;51.960;5.886;2023-02-15T02:08:29;43.67;;;25.77;;
36799;SDS011;22752;51.960;5.886;2023-02-15T02:10:56;44.43;;;26.23;;
36799;SDS011;22752;51.960;5.886;2023-02-15T02:13:21;39.57;;;24.50;;
36799;SDS011;22752;51.960;5.886;2023-02-15T02:15:48;36.57;;;24.40;;
36799;SDS011;22752;51.960;5.886;2023-02-15T02:21:11;34.40;;;22.60;;
36799;SDS011;22752;51.960;5.886;2023-02-15T02:26:54;38.07;;;23.47;;
36799;SDS011;22752;51.960;5.886;2023-02-15T02:35:52;40.40;;;25.57;;
36799;SDS011;22752;51.960;5.886;2023-02-15T02:43:59;36.43;;;21.70;;
36799;SDS011;22752;51.960;5.886;2023-02-15T02:46:37;41.47;;;24.50;;
36799;SDS011;22752;51.960;5.886;2023-02-15T02:49:05;38.63;;;23.70;;
36799;SDS011;22752;51.960;5.886;2023-02-15T02:51:31;38.07;;;23.63;;
36799;SDS011;22752;51.960;5.886;2023-02-15T02:53:56;38.40;;;23.17;;
36799;SDS011;22752;51.960;5.886;2023-02-15T02:56:29;37.53;;;23.63;;
36799;SDS011;22752;51.960;5.886;2023-02-15T02:59:04;38.25;;;23.05;;
36799;SDS011;22752;51.960;5.886;2023-02-15T03:01:42;37.90;;;23.03;;
36799;SDS011;22752;51.960;5.886;2023-02-15T03:04:14;37.43;;;22.90;;
36799;SDS011;22752;51.960;5.886;2023-02-15T03:06:47;37.60;;;23.40;;
36799;SDS011;22752;51.960;5.886;2023-02-15T03:09:19;39.57;;;24.77;;
36799;SDS011;22752;51.960;5.886;2023-02-15T03:12:08;34.97;;;21.17;;
36799;SDS011;22752;51.960;5.886;2023-02-15T03:14:38;43.10;;;24.53;;
36799;SDS011;22752;51.960;5.886;2023-02-15T03:17:06;39.83;;;24.97;;
36799;SDS011;22752;51.960;5.886;2023-02-15T03:19:33;39.43;;;23.57;;
36799;SDS011;22752;51.960;5.886;2023-02-15T03:22:06;40.73;;;26.53;;
36799;SDS011;22752;51.960;5.886;2023-02-15T03:24:40;43.10;;;25.10;;
36799;SDS011;22752;51.960;5.886;2023-02-15T03:27:14;46.73;;;28.30;;
36799;SDS011;22752;51.960;5.886;2023-02-15T03:29:45;41.53;;;24.90;;
36799;SDS011;22752;51.960;5.886;2023-02-15T03:32:15;46.13;;;26.20;;
36799;SDS011;22752;51.960;5.886;2023-02-15T03:34:42;41.17;;;24.60;;
36799;SDS011;22752;51.960;5.886;2023-02-15T03:39:50;41.67;;;25.47;;
36799;SDS011;22752;51.960;5.886;2023-02-15T03:42:17;41.17;;;25.20;;
36799;SDS011;22752;51.960;5.886;2023-02-15T03:45:02;41.93;;;25.07;;
36799;SDS011;22752;51.960;5.886;2023-02-15T03:47:34;37.33;;;23.20;;
36799;SDS011;22752;51.960;5.886;2023-02-15T03:50:05;39.37;;;24.07;;
36799;SDS011;22752;51.960;5.886;2023-02-15T03:52:55;41.57;;;25.17;;
36799;SDS011;22752;51.960;5.886;2023-02-15T03:55:23;38.63;;;25.03;;
36799;SDS011;22752;51.960;5.886;2023-02-15T03:57:49;40.97;;;27.03;;
36799;SDS011;22752;51.960;5.886;2023-02-15T04:00:35;40.53;;;24.63;;
36799;SDS011;22752;51.960;5.886;2023-02-15T04:05:48;41.43;;;26.07;;
36799;SDS011;22752;51.960;5.886;2023-02-15T04:08:13;48.47;;;27.67;;
36799;SDS011;22752;51.960;5.886;2023-02-15T04:10:39;42.43;;;25.30;;
36799;SDS011;22752;51.960;5.886;2023-02-15T04:13:17;45.73;;;25.73;;
36799;SDS011;22752;51.960;5.886;2023-02-15T04:15:44;45.73;;;27.43;;
36799;SDS011;22752;51.960;5.886;2023-02-15T04:18:32;43.80;;;26.47;;
36799;SDS011;22752;51.960;5.886;2023-02-15T04:21:17;46.67;;;26.77;;
36799;SDS011;22752;51.960;5.886;2023-02-15T04:24:02;52.87;;;31.80;;
36799;SDS011;22752;51.960;5.886;2023-02-15T04:26:47;46.20;;;27.20;;
36799;SDS011;22752;51.960;5.886;2023-02-15T04:29:13;44.73;;;27.60;;
36799;SDS011;22752;51.960;5.886;2023-02-15T04:31:40;41.57;;;26.07;;
36799;SDS011;22752;51.960;5.886;2023-02-15T04:34:07;43.87;;;24.77;;
36799;SDS011;22752;51.960;5.886;2023-02-15T04:36:33;42.33;;;24.60;;
36799;SDS011;22752;51.960;5.886;2023-02-15T04:38:59;36.97;;;23.20;;
36799;SDS011;22752;51.960;5.886;2023-02-15T04:41:24;44.70;;;24.03;;
36799;SDS011;22752;51.960;5.886;2023-02-15T04:43:50;37.83;;;23.33;;
36799;SDS011;22752;51.960;5.886;2023-02-15T04:46:16;37.70;;;23.53;;
36799;SDS011;22752;51.960;5.886;2023-02-15T04:48:41;40.37;;;23.57;;
36799;SDS011;22752;51.960;5.886;2023-02-15T04:51:07;42.47;;;23.73;;
36799;SDS011;22752;51.960;5.886;2023-02-15T04:53:34;41.13;;;21.60;;
36799;SDS011;22752;51.960;5.886;2023-02-15T04:56:00;37.27;;;21.97;;
36799;SDS011;22752;51.960;5.886;2023-02-15T04:58:26;39.13;;;22.17;;
36799;SDS011;22752;51.960;5.886;2023-02-15T05:00:54;38.20;;;22.13;;
36799;SDS011;22752;51.960;5.886;2023-02-15T05:03:21;38.60;;;23.17;;
36799;SDS011;22752;51.960;5.886;2023-02-15T05:05:46;35.27;;;21.90;;
36799;SDS011;22752;51.960;5.886;2023-02-15T05:08:12;33.90;;;21.97;;
36799;SDS011;22752;51.960;5.886;2023-02-15T05:10:38;36.97;;;23.13;;
36799;SDS011;22752;51.960;5.886;2023-02-15T05:13:03;36.23;;;22.27;;
36799;SDS011;22752;51.960;5.886;2023-02-15T05:15:29;40.37;;;23.60;;
36799;SDS011;22752;51.960;5.886;2023-02-15T05:17:54;40.80;;;24.73;;
36799;SDS011;22752;51.960;5.886;2023-02-15T05:20:20;45.07;;;25.33;;
36799;SDS011;22752;51.960;5.886;2023-02-15T05:22:46;45.93;;;26.60;;
36799;SDS011;22752;51.960;5.886;2023-02-15T05:25:11;40.67;;;25.17;;
36799;SDS011;22752;51.960;5.886;2023-02-15T05:27:56;44.40;;;25.83;;
36799;SDS011;22752;51.960;5.886;2023-02-15T05:30:40;55.53;;;31.30;;
36799;SDS011;22752;51.960;5.886;2023-02-15T05:33:06;43.80;;;25.20;;
36799;SDS011;22752;51.960;5.886;2023-02-15T05:35:32;41.00;;;24.07;;
36799;SDS011;22752;51.960;5.886;2023-02-15T05:37:59;44.00;;;25.63;;
36799;SDS011;22752;51.960;5.886;2023-02-15T05:40:25;45.83;;;27.07;;
36799;SDS011;22752;51.960;5.886;2023-02-15T05:42:50;44.30;;;25.63;;
36799;SDS011;22752;51.960;5.886;2023-02-15T05:45:16;46.70;;;26.87;;
36799;SDS011;22752;51.960;5.886;2023-02-15T05:47:42;40.70;;;23.77;;
36799;SDS011;22752;51.960;5.886;2023-02-15T05:50:08;43.10;;;25.07;;
36799;SDS011;22752;51.960;5.886;2023-02-15T05:52:34;55.10;;;31.10;;
36799;SDS011;22752;51.960;5.886;2023-02-15T05:55:00;48.90;;;28.93;;
36799;SDS011;22752;51.960;5.886;2023-02-15T05:57:27;42.77;;;26.80;;
36799;SDS011;22752;51.960;5.886;2023-02-15T05:59:53;41.43;;;25.17;;
36799;SDS011;22752;51.960;5.886;2023-02-15T06:02:19;41.70;;;24.37;;
36799;SDS011;22752;51.960;5.886;2023-02-15T06:04:44;39.70;;;24.50;;
36799;SDS011;22752;51.960;5.886;2023-02-15T06:07:10;36.07;;;23.27;;
36799;SDS011;22752;51.960;5.886;2023-02-15T06:09:35;41.27;;;24.73;;
36799;SDS011;22752;51.960;5.886;2023-02-15T06:12:01;41.53;;;25.00;;
36799;SDS011;22752;51.960;5.886;2023-02-15T06:14:27;40.40;;;24.33;;
36799;SDS011;22752;51.960;5.886;2023-02-15T06:16:52;44.67;;;25.97;;
36799;SDS011;22752;51.960;5.886;2023-02-15T06:19:18;43.23;;;26.50;;
36799;SDS011;22752;51.960;5.886;2023-02-15T06:21:44;44.60;;;25.93;;
36799;SDS011;22752;51.960;5.886;2023-02-15T06:24:10;48.37;;;28.50;;
36799;SDS011;22752;51.960;5.886;2023-02-15T06:26:35;44.00;;;25.50;;
36799;SDS011;22752;51.960;5.886;2023-02-15T06:29:01;41.00;;;24.43;;
36799;SDS011;22752;51.960;5.886;2023-02-15T06:31:27;49.67;;;26.80;;
36799;SDS011;22752;51.960;5.886;2023-02-15T06:33:52;47.00;;;27.43;;
36799;SDS011;22752;51.960;5.886;2023-02-15T06:36:25;51.08;;;27.73;;
36799;SDS011;22752;51.960;5.886;2023-02-15T06:38:51;47.47;;;27.80;;
36799;SDS011;22752;51.960;5.886;2023-02-15T06:41:16;48.67;;;28.20;;
36799;SDS011;22752;51.960;5.886;2023-02-15T06:43:42;44.80;;;25.97;;
36799;SDS011;22752;51.960;5.886;2023-02-15T06:46:08;46.20;;;26.07;;
36799;SDS011;22752;51.960;5.886;2023-02-15T06:48:33;42.93;;;25.77;;
36799;SDS011;22752;51.960;5.886;2023-02-15T06:50:59;42.37;;;25.37;;
36799;SDS011;22752;51.960;5.886;2023-02-15T06:53:24;46.37;;;28.20;;
36799;SDS011;22752;51.960;5.886;2023-02-15T06:55:50;52.67;;;31.90;;
36799;SDS011;22752;51.960;5.886;2023-02-15T06:58:16;54.07;;;31.00;;
36799;SDS011;22752;51.960;5.886;2023-02-15T07:00:41;49.53;;;29.80;;
36799;SDS011;22752;51.960;5.886;2023-02-15T07:03:07;50.40;;;29.63;;
36799;SDS011;22752;51.960;5.886;2023-02-15T07:05:33;47.57;;;28.47;;
36799;SDS011;22752;51.960;5.886;2023-02-15T07:07:59;54.77;;;30.17;;
36799;SDS011;22752;51.960;5.886;2023-02-15T07:10:25;64.10;;;34.43;;
36799;SDS011;22752;51.960;5.886;2023-02-15T07:12:52;66.23;;;36.03;;
36799;SDS011;22752;51.960;5.886;2023-02-15T07:15:18;62.77;;;33.67;;
36799;SDS011;22752;51.960;5.886;2023-02-15T07:17:46;57.13;;;32.57;;
36799;SDS011;22752;51.960;5.886;2023-02-15T07:20:22;60.07;;;35.63;;
36799;SDS011;22752;51.960;5.886;2023-02-15T07:22:48;60.10;;;34.23;;
36799;SDS011;22752;51.960;5.886;2023-02-15T07:25:15;54.93;;;31.37;;
36799;SDS011;22752;51.960;5.886;2023-02-15T07:27:41;63.53;;;35.70;;
36799;SDS011;22752;51.960;5.886;2023-02-15T07:30:08;66.70;;;36.60;;
36799;SDS011;22752;51.960;5.886;2023-02-15T07:32:36;65.93;;;36.47;;
36799;SDS011;22752;51.960;5.886;2023-02-15T07:35:02;65.17;;;35.47;;
36799;SDS011;22752;51.960;5.886;2023-02-15T07:37:27;64.00;;;34.37;;
36799;SDS011;22752;51.960;5.886;2023-02-15T07:39:53;57.60;;;31.77;;
36799;SDS011;22752;51.960;5.886;2023-02-15T07:42:18;58.70;;;34.27;;
36799;SDS011;22752;51.960;5.886;2023-02-15T07:44:46;57.87;;;32.57;;
36799;SDS011;22752;51.960;5.886;2023-02-15T07:47:11;59.67;;;33.37;;
36799;SDS011;22752;51.960;5.886;2023-02-15T07:49:37;63.40;;;36.60;;
36799;SDS011;22752;51.960;5.886;2023-02-15T07:52:03;56.40;;;32.37;;
36799;SDS011;22752;51.960;5.886;2023-02-15T07:54:29;64.20;;;36.70;;
36799;SDS011;22752;51.960;5.886;2023-02-15T07:56:55;64.27;;;37.50;;
36799;SDS011;22752;51.960;5.886;2023-02-15T07:59:20;61.63;;;37.67;;
36799;SDS011;22752;51.960;5.886;2023-02-15T08:01:46;78.43;;;43.93;;
36799;SDS011;22752;51.960;5.886;2023-02-15T08:04:12;73.30;;;43.73;;
36799;SDS011;22752;51.960;5.886;2023-02-15T08:06:37;75.20;;;45.00;;
36799;SDS011;22752;51.960;5.886;2023-02-15T08:09:04;72.90;;;41.83;;
36799;SDS011;22752;51.960;5.886;2023-02-15T08:11:33;67.13;;;39.93;;
36799;SDS011;22752;51.960;5.886;2023-02-15T08:16:44;63.77;;;38.27;;
36799;SDS011;22752;51.960;5.886;2023-02-15T08:19:27;59.13;;;36.87;;
36799;SDS011;22752;51.960;5.886;2023-02-15T08:21:59;68.10;;;39.50;;
36799;SDS011;22752;51.960;5.886;2023-02-15T08:24:27;56.97;;;35.47;;
36799;SDS011;22752;51.960;5.886;2023-02-15T08:26:56;58.43;;;36.97;;
36799;SDS011;22752;51.960;5.886;2023-02-15T08:29:24;53.97;;;33.90;;
36799;SDS011;22752;51.960;5.886;2023-02-15T08:31:59;52.37;;;33.77;;
36799;SDS011;22752;51.960;5.886;2023-02-15T08:34:27;54.90;;;35.33;;
36799;SDS011;22752;51.960;5.886;2023-02-15T08:36:54;52.53;;;33.63;;
36799;SDS011;22752;51.960;5.886;2023-02-15T08:39:20;52.80;;;33.03;;
36799;SDS011;22752;51.960;5.886;2023-02-15T08:41:46;55.50;;;33.53;;
36799;SDS011;22752;51.960;5.886;2023-02-15T08:44:14;51.63;;;31.73;;
36799;SDS011;22752;51.960;5.886;2023-02-15T08:46:41;49.40;;;30.33;;
36799;SDS011;22752;51.960;5.886;2023-02-15T08:49:08;48.43;;;32.27;;
36799;SDS011;22752;51.960;5.886;2023-02-15T08:51:36;52.33;;;33.87;;
36799;SDS011;22752;51.960;5.886;2023-02-15T08:54:04;52.43;;;33.57;;
36799;SDS011;22752;51.960;5.886;2023-02-15T08:56:32;59.40;;;36.80;;
36799;SDS011;22752;51.960;5.886;2023-02-15T08:59:00;52.50;;;33.70;;
36799;SDS011;22752;51.960;5.886;2023-02-15T09:01:27;49.87;;;32.30;;
36799;SDS011;22752;51.960;5.886;2023-02-15T09:03:58;48.87;;;30.00;;
36799;SDS011;22752;51.960;5.886;2023-02-15T09:06:26;52.80;;;31.93;;
36799;SDS011;22752;51.960;5.886;2023-02-15T09:08:53;57.30;;;33.97;;
36799;SDS011;22752;51.960;5.886;2023-02-15T09:11:20;54.33;;;34.70;;
36799;SDS011;22752;51.960;5.886;2023-02-15T09:13:58;56.30;;;35.17;;
36799;SDS011;22752;51.960;5.886;2023-02-15T09:16:27;56.93;;;36.63;;
36799;SDS011;22752;51.960;5.886;2023-02-15T09:18:55;55.27;;;36.17;;
36799;SDS011;22752;51.960;5.886;2023-02-15T09:21:26;55.73;;;36.07;;
36799;SDS011;22752;51.960;5.886;2023-02-15T09:23:55;54.67;;;32.43;;
36799;SDS011;22752;51.960;5.886;2023-02-15T09:26:24;51.13;;;33.90;;
36799;SDS011;22752;51.960;5.886;2023-02-15T09:28:52;54.20;;;35.47;;
36799;SDS011;22752;51.960;5.886;2023-02-15T09:31:21;52.37;;;33.33;;
36799;SDS011;22752;51.960;5.886;2023-02-15T09:33:50;60.53;;;35.67;;
36799;SDS011;22752;51.960;5.886;2023-02-15T09:36:17;58.93;;;33.87;;
36799;SDS011;22752;51.960;5.886;2023-02-15T09:38:47;53.70;;;34.87;;
36799;SDS011;22752;51.960;5.886;2023-02-15T09:41:30;54.22;;;33.50;;
36799;SDS011;22752;51.960;5.886;2023-02-15T09:44:24;51.83;;;32.43;;
36799;SDS011;22752;51.960;5.886;2023-02-15T09:47:09;50.57;;;31.27;;
36799;SDS011;22752;51.960;5.886;2023-02-15T10:03:42;53.13;;;34.73;;
36799;SDS011;22752;51.960;5.886;2023-02-15T10:23:00;54.33;;;33.10;;
36799;SDS011;22752;51.960;5.886;2023-02-15T10:28:29;52.17;;;31.33;;
36799;SDS011;22752;51.960;5.886;2023-02-15T10:31:10;49.72;;;31.52;;
36799;SDS011;22752;51.960;5.886;2023-02-15T10:33:48;44.67;;;29.23;;
36799;SDS011;22752;51.960;5.886;2023-02-15T10:39:06;45.23;;;30.27;;
36799;SDS011;22752;51.960;5.886;2023-02-15T10:52:27;44.97;;;28.97;;
36799;SDS011;22752;51.960;5.886;2023-02-15T11:00:23;45.30;;;28.33;;
36799;SDS011;22752;51.960;5.886;2023-02-15T11:08:21;44.47;;;28.40;;
36799;SDS011;22752;51.960;5.886;2023-02-15T11:10:54;47.10;;;28.13;;
36799;SDS011;22752;51.960;5.886;2023-02-15T11:13:24;44.90;;;26.13;;
36799;SDS011;22752;51.960;5.886;2023-02-15T11:23:26;42.07;;;26.43;;
36799;SDS011;22752;51.960;5.886;2023-02-15T11:25:57;43.53;;;27.70;;
36799;SDS011;22752;51.960;5.886;2023-02-15T11:28:33;45.75;;;25.83;;
36799;SDS011;22752;51.960;5.886;2023-02-15T11:34:12;38.53;;;23.73;;
36799;SDS011;22752;51.960;5.886;2023-02-15T11:36:45;42.07;;;26.53;;
36799;SDS011;22752;51.960;5.886;2023-02-15T11:39:14;51.93;;;26.40;;
36799;SDS011;22752;51.960;5.886;2023-02-15T11:41:50;49.37;;;28.90;;
36799;SDS011;22752;51.960;5.886;2023-02-15T11:44:27;43.57;;;26.40;;
36799;SDS011;22752;51.960;5.886;2023-02-15T11:47:18;43.43;;;25.60;;
36799;SDS011;22752;51.960;5.886;2023-02-15T11:49:43;61.27;;;28.57;;
36799;SDS011;22752;51.960;5.886;2023-02-15T11:52:12;48.27;;;28.07;;
36799;SDS011;22752;51.960;5.886;2023-02-15T11:54:40;40.93;;;26.47;;
36799;SDS011;22752;51.960;5.886;2023-02-15T11:57:14;42.05;;;27.33;;
36799;SDS011;22752;51.960;5.886;2023-02-15T12:00:30;45.87;;;26.57;;
36799;SDS011;22752;51.960;5.886;2023-02-15T12:02:52;46.07;;;27.33;;
36799;SDS011;22752;51.960;5.886;2023-02-15T12:05:20;46.30;;;27.20;;
36799;SDS011;22752;51.960;5.886;2023-02-15T12:07:49;42.43;;;25.00;;
36799;SDS011;22752;51.960;5.886;2023-02-15T12:10:24;36.63;;;24.37;;
36799;SDS011;22752;51.960;5.886;2023-02-15T12:13:14;39.23;;;24.20;;
36799;SDS011;22752;51.960;5.886;2023-02-15T12:15:42;47.83;;;27.03;;
36799;SDS011;22752;51.960;5.886;2023-02-15T12:21:08;48.77;;;28.40;;
36799;SDS011;22752;51.960;5.886;2023-02-15T12:24:22;37.37;;;24.10;;
36799;SDS011;22752;51.960;5.886;2023-02-15T12:26:39;41.23;;;25.47;;
36799;SDS011;22752;51.960;5.886;2023-02-15T12:29:07;43.07;;;27.37;;
36799;SDS011;22752;51.960;5.886;2023-02-15T12:31:45;42.30;;;26.43;;
36799;SDS011;22752;51.960;5.886;2023-02-15T12:36:57;38.47;;;24.00;;
36799;SDS011;22752;51.960;5.886;2023-02-15T12:39:31;62.20;;;28.03;;
36799;SDS011;22752;51.960;5.886;2023-02-15T12:42:01;40.30;;;26.60;;
36799;SDS011;22752;51.960;5.886;2023-02-15T12:44:39;42.38;;;26.65;;
36799;SDS011;22752;51.960;5.886;2023-02-15T12:47:19;41.13;;;26.33;;
36799;SDS011;22752;51.960;5.886;2023-02-15T12:50:05;40.93;;;25.20;;
36799;SDS011;22752;51.960;5.886;2023-02-15T12:52:36;44.00;;;27.50;;
36799;SDS011;22752;51.960;5.886;2023-02-15T12:58:06;41.90;;;26.27;;
36799;SDS011;22752;51.960;5.886;2023-02-15T13:00:42;47.27;;;28.43;;
36799;SDS011;22752;51.960;5.886;2023-02-15T13:03:15;43.57;;;28.00;;
36799;SDS011;22752;51.960;5.886;2023-02-15T13:05:47;39.23;;;25.50;;
36799;SDS011;22752;51.960;5.886;2023-02-15T13:08:30;42.73;;;26.70;;
36799;SDS011;22752;51.960;5.886;2023-02-15T13:10:59;41.90;;;24.53;;
36799;SDS011;22752;51.960;5.886;2023-02-15T13:13:36;42.17;;;25.77;;
36799;SDS011;22752;51.960;5.886;2023-02-15T13:16:27;41.70;;;25.60;;
36799;SDS011;22752;51.960;5.886;2023-02-15T13:18:54;40.40;;;26.70;;
36799;SDS011;22752;51.960;5.886;2023-02-15T13:21:23;44.00;;;28.93;;
36799;SDS011;22752;51.960;5.886;2023-02-15T13:24:38;46.87;;;28.67;;
36799;SDS011;22752;51.960;5.886;2023-02-15T13:26:43;51.57;;;31.07;;
36799;SDS011;22752;51.960;5.886;2023-02-15T13:29:15;45.73;;;27.60;;
36799;SDS011;22752;51.960;5.886;2023-02-15T13:31:46;44.10;;;27.17;;
36799;SDS011;22752;51.960;5.886;2023-02-15T13:34:17;42.13;;;26.90;;
36799;SDS011;22752;51.960;5.886;2023-02-15T14:01:41;34.70;;;22.70;;
36799;SDS011;22752;51.960;5.886;2023-02-15T14:16:03;41.03;;;26.30;;
36799;SDS011;22752;51.960;5.886;2023-02-15T14:24:21;40.23;;;23.30;;
36799;SDS011;22752;51.960;5.886;2023-02-15T14:32:16;42.73;;;26.57;;
36799;SDS011;22752;51.960;5.886;2023-02-15T14:35:04;48.57;;;28.03;;
36799;SDS011;22752;51.960;5.886;2023-02-15T14:51:54;37.10;;;22.17;;
36799;SDS011;22752;51.960;5.886;2023-02-15T14:59:26;33.67;;;21.67;;
36799;SDS011;22752;51.960;5.886;2023-02-15T15:01:56;38.30;;;23.73;;
36799;SDS011;22752;51.960;5.886;2023-02-15T15:04:29;42.97;;;24.73;;
36799;SDS011;22752;51.960;5.886;2023-02-15T15:09:33;35.07;;;21.17;;
36799;SDS011;22752;51.960;5.886;2023-02-15T15:14:46;30.73;;;19.60;;
36799;SDS011;22752;51.960;5.886;2023-02-15T15:25:44;35.73;;;22.57;;
36799;SDS011;22752;51.960;5.886;2023-02-15T15:33:59;35.90;;;20.90;;
36799;SDS011;22752;51.960;5.886;2023-02-15T15:41:41;24.57;;;15.77;;
36799;SDS011;22752;51.960;5.886;2023-02-15T15:49:30;29.97;;;18.27;;
36799;SDS011;22752;51.960;5.886;2023-02-15T15:52:01;32.20;;;18.40;;
36799;SDS011;22752;51.960;5.886;2023-02-15T15:54:33;29.10;;;18.00;;
36799;SDS011;22752;51.960;5.886;2023-02-15T15:57:03;27.40;;;16.83;;
36799;SDS011;22752;51.960;5.886;2023-02-15T15:59:32;27.23;;;16.93;;
36799;SDS011;22752;51.960;5.886;2023-02-15T16:02:06;28.00;;;16.87;;
36799;SDS011;22752;51.960;5.886;2023-02-15T16:04:36;26.50;;;15.77;;
36799;SDS011;22752;51.960;5.886;2023-02-15T16:07:20;29.03;;;17.00;;
36799;SDS011;22752;51.960;5.886;2023-02-15T16:12:23;30.47;;;18.53;;
36799;SDS011;22752;51.960;5.886;2023-02-15T16:14:52;28.90;;;18.37;;
36799;SDS011;22752;51.960;5.886;2023-02-15T16:17:23;32.00;;;19.43;;
36799;SDS011;22752;51.960;5.886;2023-02-15T16:19:50;27.67;;;18.37;;
36799;SDS011;22752;51.960;5.886;2023-02-15T16:22:21;30.57;;;18.03;;
36799;SDS011;22752;51.960;5.886;2023-02-15T16:25:05;27.93;;;17.03;;
36799;SDS011;22752;51.960;5.886;2023-02-15T16:27:38;29.70;;;17.80;;
36799;SDS011;22752;51.960;5.886;2023-02-15T16:32:43;26.67;;;15.67;;
36799;SDS011;22752;51.960;5.886;2023-02-15T16:35:12;28.83;;;16.70;;
36799;SDS011;22752;51.960;5.886;2023-02-15T16:37:40;29.73;;;17.90;;
36799;SDS011;22752;51.960;5.886;2023-02-15T16:40:06;28.60;;;17.70;;
36799;SDS011;22752;51.960;5.886;2023-02-15T16:42:50;30.00;;;17.83;;
36799;SDS011;22752;51.960;5.886;2023-02-15T16:45:20;29.23;;;18.07;;
36799;SDS011;22752;51.960;5.886;2023-02-15T16:47:49;33.90;;;17.93;;
36799;SDS011;22752;51.960;5.886;2023-02-15T16:50:20;33.83;;;19.47;;
36799;SDS011;22752;51.960;5.886;2023-02-15T16:52:51;36.97;;;20.67;;
36799;SDS011;22752;51.960;5.886;2023-02-15T16:55:25;37.17;;;19.37;;
36799;SDS011;22752;51.960;5.886;2023-02-15T16:57:57;31.20;;;19.97;;
36799;SDS011;22752;51.960;5.886;2023-02-15T17:00:28;39.63;;;22.93;;
36799;SDS011;22752;51.960;5.886;2023-02-15T17:03:04;41.13;;;24.83;;
36799;SDS011;22752;51.960;5.886;2023-02-15T17:08:06;40.87;;;25.30;;
36799;SDS011;22752;51.960;5.886;2023-02-15T17:10:36;48.50;;;29.13;;
36799;SDS011;22752;51.960;5.886;2023-02-15T17:13:13;44.90;;;26.13;;
36799;SDS011;22752;51.960;5.886;2023-02-15T17:15:41;44.57;;;26.70;;
36799;SDS011;22752;51.960;5.886;2023-02-15T17:18:18;42.83;;;24.37;;
36799;SDS011;22752;51.960;5.886;2023-02-15T17:20:49;46.20;;;28.03;;
36799;SDS011;22752;51.960;5.886;2023-02-15T17:25:54;44.87;;;25.20;;
36799;SDS011;22752;51.960;5.886;2023-02-15T17:28:22;48.57;;;25.27;;
36799;SDS011;22752;51.960;5.886;2023-02-15T17:30:53;41.50;;;25.07;;
36799;SDS011;22752;51.960;5.886;2023-02-15T17:33:21;43.23;;;24.10;;
36799;SDS011;22752;51.960;5.886;2023-02-15T17:38:34;44.90;;;27.13;;
36799;SDS011;22752;51.960;5.886;2023-02-15T17:41:01;42.20;;;27.30;;
36799;SDS011;22752;51.960;5.886;2023-02-15T17:43:27;45.57;;;27.97;;
36799;SDS011;22752;51.960;5.886;2023-02-15T17:45:52;51.03;;;31.57;;
36799;SDS011;22752;51.960;5.886;2023-02-15T17:48:41;50.60;;;30.00;;
36799;SDS011;22752;51.960;5.886;2023-02-15T17:51:06;46.03;;;30.00;;
36799;SDS011;22752;51.960;5.886;2023-02-15T17:53:36;44.03;;;27.00;;
36799;SDS011;22752;51.960;5.886;2023-02-15T17:56:02;48.77;;;28.07;;
36799;SDS011;22752;51.960;5.886;2023-02-15T17:58:46;49.10;;;27.50;;
36799;SDS011;22752;51.960;5.886;2023-02-15T18:01:14;47.00;;;30.40;;
36799;SDS011;22752;51.960;5.886;2023-02-15T18:04:01;46.80;;;28.30;;
36799;SDS011;22752;51.960;5.886;2023-02-15T18:06:45;44.10;;;27.03;;
36799;SDS011;22752;51.960;5.886;2023-02-15T18:09:30;40.47;;;25.83;;
36799;SDS011;22752;51.960;5.886;2023-02-15T18:14:42;40.17;;;24.83;;
36799;SDS011;22752;51.960;5.886;2023-02-15T18:17:09;38.97;;;24.37;;